Belville, North Carolina
Current Conditions -  °F | °C
As of 3:53 AM on Wednesday 26 Nov 2014 (Local Time) from KILM Reporting Station
Haze Haze  
Wind Chill: 64°   Ceiling: 500
Heat Index: 64°   Visibility: 6mi
Dew Point: 64°   Wind: 7mph
Humidity: 100%   Direction: 100°E
Pressure: 29.78"   Gusts: NA
Location:  34.2757°N, 78.1004°W
Report Text: KILM 260853Z 10006KT 6SM BR OVC005 18/18 A2978 RMK AO2 SLP083 60001 T01780178 56041
Loading
Personal Weather Stations






























Interactive Weather Map New forecast layout! Learn more

10-Day Weather Forecast

Advertisements
Track Severe Weather on mobile